Ming Zhou 56 — BLAC4 — position and weather

sailwx.info

Track history (hours):
 
Tides and Currents Weather Stations Pressure Air Temp Water Temp Dewpoint Dewpoint Depression Visibility Wind Speed Wind Dir Waves Ship Positions

Ming Zhou 56

Last reported at 2014-Aug-19 17:18 UTC. Time now 2014-Aug-20 16:39 UTC.
Position N 30°03' E 121°56'.

Length 123 m; draft 6.5 m.

Type: Cargo ship. MMSI: 412165000.

Date/timePositionNaut miles runAvg speedWind from/ knotsBaromVisibWave heightAir tempDewpointWater temp
2014-Aug-19 17:18N 30°03' E 121°56'7 8.9
2014-Aug-19 16:34N 29°58' E 121°60'5 3.7
2014-Aug-19 15:19N 29°54' E 122°02'0 0.0
2014-Aug-19 14:19N 29°54' E 122°02'0 0.0
2014-Aug-19 13:31N 29°54' E 122°02'0 0.0
2014-Aug-19 12:31N 29°54' E 122°02'0 0.0
2014-Aug-19 11:31N 29°54' E 122°02'0 0.0
2014-Aug-19 10:13N 29°54' E 122°02'0 0.0
2014-Aug-19 09:31N 29°54' E 122°02'0 0.0
2014-Aug-19 08:31N 29°54' E 122°02'0 0.0
2014-Aug-19 06:31N 29°54' E 122°02'2 1.6
2014-Aug-19 05:31N 29°55' E 122°02'5 0.8
2014-Aug-18 22:26N 29°58' E 121°56'9 9.8
2014-Aug-18 21:33N 29°55' E 122°06'1310.3
2014-Aug-18 20:17N 29°43' E 122°02'26110.1
2014-Aug-17 18:31N 26°00' E 119°29'0 0.0
2014-Aug-17 17:19N 26°00' E 119°29'0 0.0
2014-Aug-17 16:07N 26°00' E 119°29'0 0.0
2014-Aug-17 15:19N 26°00' E 119°29'0 0.0
2014-Aug-17 14:31N 26°00' E 119°29'0 0.0
2014-Aug-17 13:31N 26°00' E 119°29'0 0.0
2014-Aug-17 12:19N 26°00' E 119°29'0 0.0
2014-Aug-17 11:31N 26°00' E 119°29'0 0.0
2014-Aug-17 10:31N 26°00' E 119°29'0 0.0
2014-Aug-17 09:13N 26°00' E 119°29'0 0.0
2014-Aug-17 08:25N 26°00' E 119°29'0 0.0
2014-Aug-17 07:31N 26°00' E 119°29'0 0.0
2014-Aug-17 06:31N 26°00' E 119°29'4 4.1
2014-Aug-17 05:32N 26°04' E 119°31'248 9.5
2014-Aug-16 03:18N 29°30' E 122°07'7 9.9
2014-Aug-16 02:33N 29°37' E 122°05'1110.4
2014-Aug-16 01:32N 29°47' E 122°04'8 8.1
2014-Aug-16 00:34N 29°55' E 122°05'9 1.2
2014-Aug-15 16:32N 29°57' E 121°54'2 1.8
2014-Aug-15 15:31N 29°56' E 121°52'0 0.0
2014-Aug-15 14:31N 29°56' E 121°52'0 0.0
2014-Aug-15 13:25N 29°56' E 121°52'0 0.0
2014-Aug-15 12:25N 29°56' E 121°52'0 0.0
2014-Aug-15 11:31N 29°56' E 121°52'0 0.0
2014-Aug-15 10:31N 29°56' E 121°52'0 0.0
2014-Aug-15 08:33N 29°56' E 121°52'3 0.1
2014-Aug-14 07:29N 29°59' E 121°50'2 2.3
2014-Aug-14 06:34N 29°57' E 121°50'0 0.0
2014-Aug-14 05:32N 29°57' E 121°50'0 0.0
2014-Aug-14 04:31N 29°57' E 121°50'0 0.0
2014-Aug-14 03:31N 29°57' E 121°50'0 0.0
2014-Aug-14 02:31N 29°57' E 121°50'0 0.0
2014-Aug-14 01:31N 29°57' E 121°50'0 0.0
2014-Aug-14 00:31N 29°57' E 121°50'0 0.0
2014-Aug-13 23:31N 29°57' E 121°50'0 0.0
2014-Aug-13 22:31N 29°57' E 121°50'0 0.0
2014-Aug-13 21:34N 29°57' E 121°50'0 0.0
2014-Aug-13 20:28N 29°57' E 121°50'0 0.0
2014-Aug-13 19:34N 29°57' E 121°50'0 0.0
2014-Aug-13 18:22N 29°57' E 121°50'0 0.0
2014-Aug-13 17:13N 29°57' E 121°50'0 0.0
2014-Aug-13 16:04N 29°57' E 121°50'0 0.0
2014-Aug-13 15:33N 29°57' E 121°50'4 4.2
2014-Aug-13 14:33N 30°01' E 121°50'0 0.0
2014-Aug-13 06:25N 30°01' E 121°49'2 0.5
2014-Aug-13 03:05N 29°59' E 121°50'0 0.3
2014-Aug-13 01:33N 29°59' E 121°50'11 2.8
2014-Aug-12 21:33N 30°10' E 121°48'11 0.3
2014-Aug-11 08:04N 29°59' E 121°49'4 6.9
2014-Aug-11 07:29N 29°56' E 121°52'0 0.1
2014-Aug-11 05:28N 29°56' E 121°52'0 0.0
2014-Aug-11 02:21N 29°56' E 121°52'0 0.0
2014-Aug-11 01:34N 29°56' E 121°52'0 0.1
2014-Aug-11 00:33N 29°56' E 121°52'0 0.0
2014-Aug-10 23:27N 29°56' E 121°52'0 0.0
2014-Aug-10 22:28N 29°56' E 121°52'0 0.0
2014-Aug-10 21:28N 29°56' E 121°52'1 1.3
2014-Aug-10 20:32N 29°57' E 121°52'  
Track history (hours):
 
Tides and Currents Weather Stations Pressure Air Temp Water Temp Dewpoint Dewpoint Depression Visibility Wind Speed Wind Dir Waves Ship Positions

Ming Zhou 56

Last reported at 2014-Aug-19 17:18 UTC. Time now 2014-Aug-20 16:39 UTC.
Position N 30°03' E 121°56'.

Length 123 m; draft 6.5 m.

Type: Cargo ship. MMSI: 412165000.

Date/timePositionNaut miles runAvg speedWind from/ knotsBaromVisibWave heightAir tempDewpointWater temp
2014-Aug-19 17:18N 30°03' E 121°56'7 8.9
2014-Aug-19 16:34N 29°58' E 121°60'5 3.7
2014-Aug-19 15:19N 29°54' E 122°02'0 0.0
2014-Aug-19 14:19N 29°54' E 122°02'0 0.0
2014-Aug-19 13:31N 29°54' E 122°02'0 0.0
2014-Aug-19 12:31N 29°54' E 122°02'0 0.0
2014-Aug-19 11:31N 29°54' E 122°02'0 0.0
2014-Aug-19 10:13N 29°54' E 122°02'0 0.0
2014-Aug-19 09:31N 29°54' E 122°02'0 0.0
2014-Aug-19 08:31N 29°54' E 122°02'0 0.0
2014-Aug-19 06:31N 29°54' E 122°02'2 1.6
2014-Aug-19 05:31N 29°55' E 122°02'5 0.8
2014-Aug-18 22:26N 29°58' E 121°56'9 9.8
2014-Aug-18 21:33N 29°55' E 122°06'1310.3
2014-Aug-18 20:17N 29°43' E 122°02'26110.1
2014-Aug-17 18:31N 26°00' E 119°29'0 0.0
2014-Aug-17 17:19N 26°00' E 119°29'0 0.0
2014-Aug-17 16:07N 26°00' E 119°29'0 0.0
2014-Aug-17 15:19N 26°00' E 119°29'0 0.0
2014-Aug-17 14:31N 26°00' E 119°29'0 0.0
2014-Aug-17 13:31N 26°00' E 119°29'0 0.0
2014-Aug-17 12:19N 26°00' E 119°29'0 0.0
2014-Aug-17 11:31N 26°00' E 119°29'0 0.0
2014-Aug-17 10:31N 26°00' E 119°29'0 0.0
2014-Aug-17 09:13N 26°00' E 119°29'0 0.0
2014-Aug-17 08:25N 26°00' E 119°29'0 0.0
2014-Aug-17 07:31N 26°00' E 119°29'0 0.0
2014-Aug-17 06:31N 26°00' E 119°29'4 4.1
2014-Aug-17 05:32N 26°04' E 119°31'248 9.5
2014-Aug-16 03:18N 29°30' E 122°07'7 9.9
2014-Aug-16 02:33N 29°37' E 122°05'1110.4
2014-Aug-16 01:32N 29°47' E 122°04'8 8.1
2014-Aug-16 00:34N 29°55' E 122°05'9 1.2
2014-Aug-15 16:32N 29°57' E 121°54'2 1.8
2014-Aug-15 15:31N 29°56' E 121°52'0 0.0
2014-Aug-15 14:31N 29°56' E 121°52'0 0.0
2014-Aug-15 13:25N 29°56' E 121°52'0 0.0
2014-Aug-15 12:25N 29°56' E 121°52'0 0.0
2014-Aug-15 11:31N 29°56' E 121°52'0 0.0
2014-Aug-15 10:31N 29°56' E 121°52'0 0.0
2014-Aug-15 08:33N 29°56' E 121°52'3 0.1
2014-Aug-14 07:29N 29°59' E 121°50'2 2.3
2014-Aug-14 06:34N 29°57' E 121°50'0 0.0
2014-Aug-14 05:32N 29°57' E 121°50'0 0.0
2014-Aug-14 04:31N 29°57' E 121°50'0 0.0
2014-Aug-14 03:31N 29°57' E 121°50'0 0.0
2014-Aug-14 02:31N 29°57' E 121°50'0 0.0
2014-Aug-14 01:31N 29°57' E 121°50'0 0.0
2014-Aug-14 00:31N 29°57' E 121°50'0 0.0
2014-Aug-13 23:31N 29°57' E 121°50'0 0.0
2014-Aug-13 22:31N 29°57' E 121°50'0 0.0
2014-Aug-13 21:34N 29°57' E 121°50'0 0.0
2014-Aug-13 20:28N 29°57' E 121°50'0 0.0
2014-Aug-13 19:34N 29°57' E 121°50'0 0.0
2014-Aug-13 18:22N 29°57' E 121°50'0 0.0
2014-Aug-13 17:13N 29°57' E 121°50'0 0.0
2014-Aug-13 16:04N 29°57' E 121°50'0 0.0
2014-Aug-13 15:33N 29°57' E 121°50'4 4.2
2014-Aug-13 14:33N 30°01' E 121°50'0 0.0
2014-Aug-13 06:25N 30°01' E 121°49'2 0.5
2014-Aug-13 03:05N 29°59' E 121°50'0 0.3
2014-Aug-13 01:33N 29°59' E 121°50'11 2.8
2014-Aug-12 21:33N 30°10' E 121°48'11 0.3
2014-Aug-11 08:04N 29°59' E 121°49'4 6.9
2014-Aug-11 07:29N 29°56' E 121°52'0 0.1
2014-Aug-11 05:28N 29°56' E 121°52'0 0.0
2014-Aug-11 02:21N 29°56' E 121°52'0 0.0
2014-Aug-11 01:34N 29°56' E 121°52'0 0.1
2014-Aug-11 00:33N 29°56' E 121°52'0 0.0
2014-Aug-10 23:27N 29°56' E 121°52'0 0.0
2014-Aug-10 22:28N 29°56' E 121°52'0 0.0
2014-Aug-10 21:28N 29°56' E 121°52'1 1.3
2014-Aug-10 20:32N 29°57' E 121°52'  

Dump ship's entire track history